Time;durP1;ratioP1;P1;durP2;ratioP2;P2;SDS_P1;SDS_P2;PMS_P1;PMS_P2;Temp;Humidity;BMP_temperature;BMP_pressure;BME280_temperature;BME280_humidity;BME280_pressure;Samples;Min_cycle;Max_cycle;Signal;HPM_P1;HPM_P2
2022/07/29 00:01:44;;;;;;;7.67;6.33;;;;;;;20.38;91.04;100300.77;1614302;88;21245;-80
2022/07/29 00:04:51;;;;;;;9.33;6.12;;;;;;;20.37;90.65;100304.64;1617321;88;21245;-79
2022/07/29 00:07:57;;;;;;;13.78;6.12;;;;;;;20.35;90.28;100308.19;1615261;89;21803;-80
2022/07/29 00:11:05;;;;;;;8.05;5.50;;;;;;;20.33;89.79;100298.41;1640086;86;21241;-80
2022/07/29 00:14:11;;;;;;;10.75;5.83;;;;;;;20.28;89.46;100305.20;1617268;88;21277;-80
2022/07/29 00:17:18;;;;;;;10.65;5.75;;;;;;;20.26;89.21;100306.84;1614073;88;21190;-80
2022/07/29 00:20:24;;;;;;;7.42;5.30;;;;;;;20.25;88.94;100314.04;1616981;88;21759;-80
2022/07/29 00:23:30;;;;;;;9.00;4.90;;;;;;;20.20;88.69;100315.30;1614024;89;22612;-81
2022/07/29 00:26:35;;;;;;;7.50;5.05;;;;;;;20.16;88.52;100310.77;1617094;88;21245;-82
2022/07/29 00:29:42;;;;;;;10.15;5.12;;;;;;;20.14;88.30;100316.56;1619598;87;21209;-81
2022/07/29 00:32:48;;;;;;;8.88;5.10;;;;;;;20.11;88.08;100315.64;1683855;85;21201;-81
2022/07/29 00:35:54;;;;;;;7.78;4.83;;;;;;;20.08;87.82;100323.59;1672943;86;21229;-81
2022/07/29 00:39:01;;;;;;;11.20;4.67;;;;;;;20.06;87.55;100316.91;1683725;85;21241;-81
2022/07/29 00:42:06;;;;;;;10.55;4.67;;;;;;;20.03;87.36;100309.05;1673479;86;21173;-80
2022/07/29 00:45:12;;;;;;;7.30;4.60;;;;;;;20.01;87.11;100310.38;1666348;85;21204;-80
2022/07/29 00:48:18;;;;;;;6.08;4.17;;;;;;;19.96;87.09;100308.86;1673837;86;21229;-81
2022/07/29 00:51:24;;;;;;;8.88;4.50;;;;;;;19.94;87.03;100295.75;1683933;85;21217;-81
2022/07/29 00:54:31;;;;;;;6.95;4.60;;;;;;;19.88;86.91;100297.55;1673404;86;21197;-81
2022/07/29 00:57:38;;;;;;;8.70;5.30;;;;;;;19.85;86.78;100299.41;1683608;85;21471;-80
2022/07/29 01:00:44;;;;;;;7.47;4.53;;;;;;;19.83;86.66;100288.55;1673089;86;21253;-80
2022/07/29 01:03:50;;;;;;;6.35;4.67;;;;;;;19.83;86.64;100294.64;1683867;85;21165;-80
2022/07/29 01:06:56;;;;;;;10.20;5.15;;;;;;;19.85;86.41;100306.34;1672623;86;21221;-80
2022/07/29 01:10:02;;;;;;;7.05;4.58;;;;;;;19.87;86.13;100300.88;1683665;85;21247;-81
2022/07/29 01:13:09;;;;;;;9.33;4.90;;;;;;;19.91;85.80;100312.35;1673677;86;21190;-81
2022/07/29 01:16:33;;;;;;;12.07;5.15;;;;;;;19.91;85.60;100313.74;1682604;85;21189;-80
2022/07/29 01:19:56;;;;;;;11.20;5.08;;;;;;;19.94;85.28;100306.85;1673672;86;21233;-80
2022/07/29 01:23:45;;;;;;;8.50;4.87;;;;;;;19.95;84.90;100312.19;1683736;85;21181;-80
2022/07/29 01:27:15;;;;;;;11.05;5.47;;;;;;;19.95;84.72;100305.25;1673697;86;21778;-80
2022/07/29 01:30:20;;;;;;;7.90;4.90;;;;;;;19.99;84.55;100305.59;1680192;85;21253;-81
2022/07/29 01:37:00;;;;;;;10.18;4.72;;;;;;;19.94;84.60;100314.63;1674096;86;21265;-81
2022/07/29 01:40:06;;;;;;;7.22;4.87;;;;;;;19.95;84.53;100313.58;1672824;85;21765;-80
2022/07/29 01:43:28;;;;;;;5.45;4.20;;;;;;;20.04;84.00;100310.76;1674017;86;21229;-80
2022/07/29 01:46:44;;;;;;;11.48;5.08;;;;;;;20.05;83.80;100309.67;1672750;86;21253;-82
2022/07/29 01:49:52;;;;;;;9.30;4.30;;;;;;;20.00;83.88;100305.92;1674073;86;21272;-80
2022/07/29 01:53:07;;;;;;;10.45;4.53;;;;;;;19.99;83.85;100318.92;1674086;86;21194;-80
2022/07/29 01:56:13;;;;;;;16.07;4.83;;;;;;;19.98;83.79;100313.08;1673197;86;21225;-81
2022/07/29 01:59:20;;;;;;;11.28;4.90;;;;;;;20.05;83.50;100317.16;1674048;86;21256;-80
2022/07/29 02:02:27;;;;;;;9.08;4.28;;;;;;;20.12;83.00;100323.42;1674072;86;21178;-81
2022/07/29 02:05:34;;;;;;;8.58;5.30;;;;;;;20.06;83.04;100327.17;1672784;86;21284;-80
2022/07/29 02:08:40;;;;;;;15.20;4.75;;;;;;;20.06;83.02;100333.56;1672838;86;21265;-80
2022/07/29 02:11:45;;;;;;;8.35;5.28;;;;;;;20.05;83.00;100330.48;1674139;86;21229;-80
2022/07/29 02:14:58;;;;;;;13.85;4.83;;;;;;;20.06;82.93;100333.56;1672879;86;21833;-81
2022/07/29 02:18:09;;;;;;;9.73;5.45;;;;;;;20.05;82.84;100330.48;1672635;86;21248;-81
2022/07/29 02:21:15;;;;;;;8.33;4.78;;;;;;;20.05;82.64;100344.38;1673280;86;21269;-80
2022/07/29 02:24:21;;;;;;;8.48;3.92;;;;;;;20.05;82.50;100352.70;1674124;86;21232;-80
2022/07/29 02:27:28;;;;;;;5.80;3.58;;;;;;;20.05;82.36;100359.64;1674100;86;21722;-80
2022/07/29 02:30:33;;;;;;;6.53;3.33;;;;;;;20.03;82.52;100356.23;1673726;85;21181;-80
2022/07/29 02:33:40;;;;;;;4.62;3.05;;;;;;;20.03;82.87;100354.85;1652574;87;21181;-81
2022/07/29 02:36:45;;;;;;;9.23;2.80;;;;;;;20.03;83.05;100353.46;1651660;87;21237;-80
2022/07/29 02:39:51;;;;;;;10.65;3.40;;;;;;;20.05;83.06;100356.86;1652681;87;21221;-81
2022/07/29 02:42:57;;;;;;;5.70;3.35;;;;;;;20.00;83.20;100346.17;1652707;87;21201;-80
2022/07/29 02:46:03;;;;;;;5.60;3.37;;;;;;;19.98;83.31;100339.45;1636434;87;21233;-80
2022/07/29 02:49:38;;;;;;;5.62;3.25;;;;;;;19.98;83.29;100331.13;1652034;87;21165;-80
2022/07/29 02:52:55;;;;;;;7.95;3.80;;;;;;;19.93;83.40;100330.98;1651572;87;21214;-80
2022/07/29 02:56:13;;;;;;;14.95;3.70;;;;;;;19.93;83.58;100330.98;1651980;87;21256;-81
2022/07/29 02:59:19;;;;;;;12.40;3.12;;;;;;;19.93;83.66;100333.77;1651501;86;21197;-81
2022/07/29 03:02:26;;;;;;;4.53;3.17;;;;;;;19.91;83.85;100331.78;1652795;87;21856;-80
2022/07/29 03:05:32;;;;;;;15.38;3.62;;;;;;;19.93;83.85;100332.37;1652268;87;21821;-80
2022/07/29 03:08:41;;;;;;;6.33;3.77;;;;;;;19.95;83.68;100331.62;1652845;87;22314;-79
2022/07/29 03:11:48;;;;;;;13.13;3.60;;;;;;;19.92;83.57;100334.86;1635877;87;21829;-79
2022/07/29 03:14:55;;;;;;;10.82;3.67;;;;;;;19.90;83.66;100347.59;1652674;87;21240;-80
2022/07/29 03:18:01;;;;;;;10.03;3.30;;;;;;;19.92;83.46;100345.95;1651491;86;21746;-81
2022/07/29 03:21:07;;;;;;;20.08;3.77;;;;;;;19.95;83.30;100345.50;1651968;87;21264;-81
2022/07/29 03:24:15;;;;;;;10.10;3.25;;;;;;;19.97;83.20;100339.16;1652713;87;21197;-80
2022/07/29 03:27:21;;;;;;;9.83;3.80;;;;;;;20.07;83.05;100340.80;1651857;87;21244;-79
2022/07/29 03:30:30;;;;;;;5.25;3.40;;;;;;;20.21;82.61;100336.42;1652314;87;21232;-81
2022/07/29 03:33:37;;;;;;;8.33;3.22;;;;;;;20.36;81.88;100340.97;1677258;85;21216;-80
2022/07/29 03:36:45;;;;;;;6.67;3.65;;;;;;;20.44;81.00;100336.45;1672365;86;21209;-80
2022/07/29 03:39:52;;;;;;;7.75;3.60;;;;;;;20.46;80.74;100344.54;1682515;85;21300;-80
2022/07/29 03:42:59;;;;;;;6.80;3.47;;;;;;;20.51;80.36;100344.14;1672515;86;21185;-80
2022/07/29 03:46:04;;;;;;;12.65;3.72;;;;;;;20.57;79.57;100352.93;1682870;85;21245;-81
2022/07/29 03:49:11;;;;;;;7.50;3.60;;;;;;;20.56;79.55;100345.69;1672339;86;21233;-81
2022/07/29 03:52:17;;;;;;;8.05;3.90;;;;;;;20.57;79.29;100347.38;1683733;85;21794;-81
2022/07/29 03:55:24;;;;;;;7.85;3.80;;;;;;;20.62;79.05;100354.98;1673834;86;21211;-81
2022/07/29 03:58:31;;;;;;;10.63;3.67;;;;;;;20.68;78.78;100346.52;1682560;85;21757;-81
2022/07/29 04:01:37;;;;;;;8.20;4.08;;;;;;;20.75;78.40;100344.14;1672843;86;21190;-81
2022/07/29 04:04:44;;;;;;;5.58;3.95;;;;;;;20.80;78.18;100344.30;1683659;85;21189;-80
2022/07/29 04:07:55;;;;;;;13.28;3.95;;;;;;;20.87;77.55;100351.95;1672631;86;21225;-80
2022/07/29 04:11:00;;;;;;;5.87;3.80;;;;;;;20.94;76.95;100362.41;1682998;85;21216;-80
2022/07/29 04:14:11;;;;;;;7.37;4.05;;;;;;;21.01;76.54;100362.27;1673686;86;21189;-80
2022/07/29 04:17:17;;;;;;;6.55;4.00;;;;;;;21.08;76.16;100369.41;1683169;85;21193;-81
2022/07/29 04:20:24;;;;;;;7.80;3.67;;;;;;;21.15;76.21;100357.59;1673291;86;21221;-80
2022/07/29 04:23:34;;;;;;;4.47;3.35;;;;;;;21.26;75.77;100363.36;1682427;85;21789;-80
2022/07/29 04:26:41;;;;;;;5.05;3.05;;;;;;;21.39;75.13;100361.19;1672350;86;21228;-80
2022/07/29 04:29:48;;;;;;;6.75;3.42;;;;;;;21.49;74.76;100357.77;1683017;85;21753;-80
2022/07/29 04:32:55;;;;;;;4.65;3.62;;;;;;;21.62;74.17;100364.44;1646698;86;21195;-80
2022/07/29 04:36:00;;;;;;;5.05;3.42;;;;;;;21.78;73.69;100366.13;1651044;86;21182;-80
2022/07/29 04:39:07;;;;;;;6.12;3.60;;;;;;;21.89;73.07;100359.13;1622754;88;21241;-80
2022/07/29 04:42:15;;;;;;;7.83;3.52;;;;;;;22.02;72.79;100362.16;1623834;88;21205;-80
2022/07/29 04:45:23;;;;;;;6.08;3.67;;;;;;;22.14;71.89;100357.38;1624359;88;21268;-81
2022/07/29 04:48:30;;;;;;;3.50;2.87;;;;;;;22.30;71.13;100361.81;1612618;87;21242;-81
2022/07/29 04:51:36;;;;;;;5.28;3.20;;;;;;;22.40;69.94;100363.41;1627785;86;21242;-81
2022/07/29 04:54:42;;;;;;;11.45;2.75;;;;;;;22.49;69.92;100361.02;1626617;88;21240;-82
2022/07/29 04:57:49;;;;;;;3.62;2.42;;;;;;;22.63;69.11;100363.23;1628467;86;21213;-80
2022/07/29 05:00:55;;;;;;;4.58;2.20;;;;;;;22.73;68.49;100365.89;1644671;86;21625;-81
2022/07/29 05:04:01;;;;;;;5.95;2.12;;;;;;;22.78;66.88;100367.36;1652690;86;21738;-81
2022/07/29 05:07:09;;;;;;;6.53;2.77;;;;;;;22.77;67.04;100366.48;1635808;86;21175;-81
2022/07/29 05:10:15;;;;;;;3.60;2.20;;;;;;;22.74;66.58;100356.42;1626093;88;21274;-81
2022/07/29 05:13:22;;;;;;;5.87;2.33;;;;;;;22.67;66.62;100364.39;1625968;88;21226;-81
2022/07/29 05:16:29;;;;;;;6.72;2.85;;;;;;;22.61;67.12;100355.66;1625839;86;21226;-81
2022/07/29 05:19:35;;;;;;;4.22;2.15;;;;;;;22.59;66.77;100352.84;1652199;86;21833;-80
2022/07/29 05:22:42;;;;;;;4.70;2.02;;;;;;;22.55;67.27;100352.50;1652283;86;21273;-81
2022/07/29 05:25:42;;;;;;;2.67;2.00;;;;;;;22.57;67.32;100349.45;1653803;86;21201;-81
2022/07/29 05:28:47;;;;;;;2.45;1.60;;;;;;;22.61;67.34;100357.61;1653585;86;21194;-81
2022/07/29 05:31:55;;;;;;;2.22;1.57;;;;;;;22.69;66.64;100352.45;1652930;86;21220;-80
2022/07/29 05:35:01;;;;;;;5.12;1.55;;;;;;;22.77;65.92;100364.25;1647747;86;21234;-80
2022/07/29 05:38:07;;;;;;;2.70;1.72;;;;;;;22.83;65.68;100360.47;1642352;87;21198;-80
2022/07/29 05:41:13;;;;;;;9.60;1.82;;;;;;;22.93;65.70;100367.06;1642298;87;21245;-80
2022/07/29 05:44:18;;;;;;;3.20;1.55;;;;;;;23.03;65.14;100364.97;1642427;87;21214;-79
2022/07/29 05:47:23;;;;;;;2.25;1.90;;;;;;;23.13;64.27;100366.50;1642592;87;21210;-80
2022/07/29 05:50:30;;;;;;;2.47;1.60;;;;;;;23.19;63.69;100368.25;1634689;87;21206;-80
2022/07/29 05:53:38;;;;;;;3.45;1.87;;;;;;;23.23;63.36;100376.11;1625032;87;21197;-80
2022/07/29 05:56:45;;;;;;;11.22;1.80;;;;;;;23.25;63.38;100371.97;1630083;87;21174;-80
2022/07/29 05:59:51;;;;;;;1.60;1.17;;;;;;;23.31;63.60;100365.91;1622130;87;21195;-80
2022/07/29 06:03:00;;;;;;;3.35;1.42;;;;;;;23.47;63.46;100361.63;1630146;87;21768;-80
2022/07/29 06:06:07;;;;;;;5.85;1.70;;;;;;;23.77;63.57;100366.50;1629795;87;21224;-80
2022/07/29 06:09:13;;;;;;;1.98;1.50;;;;;;;24.10;61.93;100366.30;1626452;87;21247;-80
2022/07/29 06:12:19;;;;;;;1.77;1.30;;;;;;;24.29;60.29;100359.77;1628161;87;21190;-82
2022/07/29 06:15:26;;;;;;;2.42;1.55;;;;;;;24.31;59.97;100365.08;1633293;87;21261;-82
2022/07/29 06:18:34;;;;;;;3.12;1.55;;;;;;;24.33;59.58;100358.69;1628492;87;21227;-81
2022/07/29 06:21:43;;;;;;;5.72;1.52;;;;;;;24.35;59.82;100369.03;1625247;87;21823;-80
2022/07/29 06:24:49;;;;;;;3.52;1.82;;;;;;;24.48;59.44;100361.63;1629805;87;21222;-81
2022/07/29 06:27:48;;;;;;;2.65;1.57;;;;;;;24.63;59.01;100356.71;1630405;87;21174;-81
2022/07/29 06:30:55;;;;;;;3.65;1.50;;;;;;;24.79;58.33;100346.47;1626709;87;21236;-81
2022/07/29 06:34:00;;;;;;;5.25;1.70;;;;;;;24.97;57.42;100358.05;1626210;87;21253;-79
2022/07/29 06:37:06;;;;;;;2.67;1.60;;;;;;;25.11;57.26;100355.65;1618975;87;21872;-81
2022/07/29 06:43:43;;;;;;;1.98;1.30;;;;;;;25.39;55.54;100361.95;1615685;89;21247;-81
2022/07/29 06:46:52;;;;;;;5.92;1.50;;;;;;;25.52;55.45;100366.21;1615577;89;21231;-81
2022/07/29 06:49:58;;;;;;;4.47;1.37;;;;;;;25.65;54.94;100363.75;1615391;89;21239;-80
2022/07/29 06:53:05;;;;;;;2.35;1.35;;;;;;;25.59;55.44;100365.38;1615380;87;21212;-80
2022/07/29 06:56:13;;;;;;;10.35;1.60;;;;;;;25.65;56.15;100344.14;1615667;89;21876;-81
2022/07/29 06:59:19;;;;;;;4.22;1.42;;;;;;;25.81;54.57;100344.20;1615635;89;21212;-82
2022/07/29 07:02:20;;;;;;;3.25;1.60;;;;;;;25.94;53.81;100347.88;1625597;87;21229;-80
2022/07/29 07:05:19;;;;;;;5.55;1.17;;;;;;;25.99;53.61;100348.73;1640521;87;21226;-80
2022/07/29 07:08:26;;;;;;;2.87;1.20;;;;;;;26.15;52.05;100354.34;1623716;87;21238;-80
2022/07/29 07:11:32;;;;;;;5.78;1.10;;;;;;;26.23;52.17;100341.19;1634646;87;21203;-80
2022/07/29 07:14:40;;;;;;;2.15;1.10;;;;;;;26.36;51.40;100352.42;1640183;87;21718;-81
2022/07/29 07:17:46;;;;;;;7.28;1.45;;;;;;;26.49;50.36;100350.49;1642002;87;21230;-81
2022/07/29 07:20:56;;;;;;;2.80;1.25;;;;;;;26.56;50.18;100355.23;1618821;87;21247;-81
2022/07/29 07:24:03;;;;;;;1.92;1.12;;;;;;;26.56;50.38;100353.84;1632602;87;21182;-80
2022/07/29 07:27:10;;;;;;;4.03;1.20;;;;;;;26.65;50.62;100360.56;1640277;87;21483;-81
2022/07/29 07:30:16;;;;;;;3.90;1.37;;;;;;;26.74;49.99;100358.87;1627105;87;21497;-81
2022/07/29 07:33:21;;;;;;;8.40;1.57;;;;;;;26.83;48.62;100358.31;1643108;87;21190;-81
2022/07/29 07:36:26;;;;;;;3.05;1.30;;;;;;;26.88;49.28;100354.09;1638142;87;21245;-82
2022/07/29 07:39:32;;;;;;;3.05;1.25;;;;;;;26.98;49.53;100352.66;1656746;86;21241;-81
2022/07/29 07:42:39;;;;;;;3.45;1.35;;;;;;;27.11;48.19;100366.14;1646464;87;21197;-82
2022/07/29 07:45:44;;;;;;;3.17;1.55;;;;;;;27.12;47.81;100349.56;1655731;86;21216;-80
2022/07/29 07:48:52;;;;;;;5.33;1.40;;;;;;;27.12;47.69;100359.39;1646411;87;21198;-81
2022/07/29 07:51:58;;;;;;;1.57;1.22;;;;;;;27.16;48.04;100360.50;1666502;85;21251;-79
2022/07/29 07:55:05;;;;;;;5.08;1.17;;;;;;;27.19;47.06;100361.88;1674733;85;21214;-80
2022/07/29 07:58:10;;;;;;;2.05;1.42;;;;;;;27.21;47.29;100356.27;1675474;85;21210;-80
2022/07/29 08:01:20;;;;;;;3.52;1.10;;;;;;;27.25;47.13;100360.77;1676236;85;21234;-81
2022/07/29 08:04:34;;;;;;;2.55;1.10;;;;;;;27.25;46.92;100365.81;1674285;83;21251;31
2022/07/29 08:07:40;;;;;;;4.00;1.17;;;;;;;27.26;46.41;100365.25;1635479;85;21215;-82
2022/07/29 08:10:53;;;;;;;4.50;1.32;;;;;;;27.28;46.82;100357.36;1689319;85;21808;-81
2022/07/29 08:14:01;;;;;;;1.40;1.17;;;;;;;27.35;45.83;100367.75;1691363;85;21208;-80
2022/07/29 08:17:09;;;;;;;2.30;1.10;;;;;;;27.37;45.01;100361.27;1690544;84;21196;-82
2022/07/29 08:20:16;;;;;;;2.52;1.37;;;;;;;27.42;45.70;100360.41;1691425;85;21666;-81
2022/07/29 08:23:23;;;;;;;3.45;1.25;;;;;;;27.51;45.06;100366.54;1690356;84;21208;-80
2022/07/29 08:26:30;;;;;;;1.30;1.07;;;;;;;27.57;45.22;100366.52;1689793;85;21334;-80
2022/07/29 08:29:36;;;;;;;1.50;1.15;;;;;;;27.62;45.11;100356.13;1691490;85;21785;-79
2022/07/29 08:32:42;;;;;;;1.45;0.98;;;;;;;27.66;43.68;100367.03;1691678;85;21236;-80
2022/07/29 08:35:50;;;;;;;2.58;1.40;;;;;;;27.60;44.71;100354.14;1691538;85;21326;-81
2022/07/29 08:38:56;;;;;;;4.65;1.35;;;;;;;27.66;44.97;100358.60;1660961;86;21861;-79
2022/07/29 08:42:03;;;;;;;3.87;1.50;;;;;;;27.72;45.28;100364.52;1669849;86;21867;-81
2022/07/29 08:45:13;;;;;;;3.25;1.50;;;;;;;27.84;45.68;100352.09;1609383;89;21286;-80
2022/07/29 08:48:22;;;;;;;5.10;1.32;;;;;;;27.93;44.76;100357.38;1608584;89;21214;-80
2022/07/29 08:51:28;;;;;;;8.05;1.40;;;;;;;27.87;45.01;100353.76;1629447;86;21216;-81
2022/07/29 08:54:35;;;;;;;4.67;1.40;;;;;;;27.92;45.49;100362.73;1681421;85;21173;-80
2022/07/29 08:57:41;;;;;;;18.77;1.62;;;;;;;27.89;45.22;100357.11;1682327;85;21208;-81
2022/07/29 09:00:52;;;;;;;3.90;1.70;;;;;;;27.92;44.08;100356.53;1681619;85;21220;-81
2022/07/29 09:03:58;;;;;;;3.72;1.30;;;;;;;27.93;44.08;100358.78;1692651;82;21776;-81
2022/07/29 09:07:06;;;;;;;3.25;1.37;;;;;;;27.94;43.96;100356.23;1684826;83;21240;-80
2022/07/29 09:10:13;;;;;;;4.75;1.45;;;;;;;27.93;43.98;100359.61;1660857;86;21261;-81
2022/07/29 09:13:18;;;;;;;3.08;1.42;;;;;;;27.89;43.43;100352.89;1632716;88;21246;-81
2022/07/29 09:16:24;;;;;;;4.67;1.47;;;;;;;27.90;43.18;100349.52;1632825;88;21850;-81
2022/07/29 09:19:35;;;;;;;3.72;1.27;;;;;;;27.86;42.01;100356.87;1632333;88;21198;-80
2022/07/29 09:22:43;;;;;;;10.00;1.87;;;;;;;27.86;43.31;100356.87;1661954;86;21271;-81
2022/07/29 09:25:49;;;;;;;6.75;1.50;;;;;;;27.96;42.40;100361.02;1664191;86;21765;-80
2022/07/29 09:28:56;;;;;;;4.60;1.10;;;;;;;28.03;42.13;100353.08;1686576;85;21200;-81
2022/07/29 09:32:02;;;;;;;4.60;1.20;;;;;;;28.04;40.59;100357.57;1686615;85;21273;-81
2022/07/29 09:35:29;;;;;;;2.33;1.25;;;;;;;28.06;40.71;100362.35;1657898;86;21264;-80
2022/07/29 09:38:35;;;;;;;2.92;1.40;;;;;;;28.02;39.79;100347.19;1660776;86;21221;-81
2022/07/29 09:42:02;;;;;;;3.17;1.42;;;;;;;27.97;39.11;100350.05;1632883;88;21216;-79
2022/07/29 09:45:07;;;;;;;5.78;1.60;;;;;;;27.93;38.67;100348.38;1632757;88;21232;-81
2022/07/29 09:48:06;;;;;;;8.05;1.62;;;;;;;27.88;38.62;100356.00;1633060;88;21209;-81
2022/07/29 09:51:12;;;;;;;3.77;1.75;;;;;;;27.87;38.53;100347.30;1643175;86;21238;-81
2022/07/29 09:54:42;;;;;;;4.25;1.65;;;;;;;27.92;38.07;100344.45;1660047;86;21189;-81
2022/07/29 09:57:42;;;;;;;4.28;1.50;;;;;;;27.96;37.73;100341.34;1662735;86;21268;-81
2022/07/29 10:00:49;;;;;;;10.05;1.77;;;;;;;28.05;38.72;100340.16;1631039;88;21885;-80
2022/07/29 10:03:55;;;;;;;8.78;1.50;;;;;;;28.10;38.60;100346.58;1618505;88;21188;-81
2022/07/29 10:07:08;;;;;;;5.55;1.72;;;;;;;28.13;38.62;100337.55;1642521;84;21241;-81
2022/07/29 10:10:13;;;;;;;3.80;1.85;;;;;;;28.21;38.44;100336.92;1689614;85;21334;-81
2022/07/29 10:13:22;;;;;;;6.10;1.82;;;;;;;28.33;39.51;100331.52;1688354;85;21800;-81
2022/07/29 10:16:32;;;;;;;;;;;;;;;28.40;39.38;100332.03;1690984;85;21235;-81
2022/07/29 10:19:39;;;;;;;7.37;1.45;;;;;;;28.43;39.22;100334.27;1656353;86;20597;-82
2022/07/29 10:22:48;;;;;;;7.15;2.00;;;;;;;28.43;39.74;100332.86;1677896;85;21220;-81
2022/07/29 10:25:56;;;;;;;7.15;1.80;;;;;;;28.48;38.58;100338.44;1677151;85;21777;-81
2022/07/29 10:29:02;;;;;;;10.48;1.72;;;;;;;28.45;38.77;100330.01;1677784;85;21189;-81
2022/07/29 10:32:16;;;;;;;3.58;1.77;;;;;;;28.52;38.96;100331.09;1653448;86;21758;-81
2022/07/29 10:35:52;;;;;;;4.40;1.70;;;;;;;28.58;38.62;100326.25;1654766;85;21892;-80
2022/07/29 10:39:11;;;;;;;5.17;1.70;;;;;;;28.60;38.46;100330.44;1655203;86;21161;-81
2022/07/29 10:42:27;;;;;;;;;;;;;;;28.63;38.02;100331.26;1656463;86;21256;-81
2022/07/29 10:45:33;;;;;;;4.20;1.85;;;;;;;28.61;37.93;100336.92;1653944;86;20197;-81
2022/07/29 10:48:40;;;;;;;4.90;1.80;;;;;;;28.59;37.67;100332.98;1655268;86;21801;-81
2022/07/29 10:52:11;;;;;;;7.20;1.72;;;;;;;28.59;37.67;100332.98;1671544;85;21900;-81
2022/07/29 10:55:17;;;;;;;4.53;1.45;;;;;;;28.64;37.11;100337.16;1688097;85;21757;-82
2022/07/29 10:58:25;;;;;;;5.35;1.72;;;;;;;28.69;37.38;100333.45;1665564;85;21773;-80
2022/07/29 11:01:37;;;;;;;4.58;1.60;;;;;;;28.67;37.17;100333.76;1687284;85;21212;-81
2022/07/29 11:04:58;;;;;;;6.40;1.67;;;;;;;28.65;37.03;100333.20;1687113;85;21188;-80
2022/07/29 11:08:25;;;;;;;3.43;1.40;;;;;;;28.67;37.06;100316.88;1692019;83;21273;-81
2022/07/29 11:11:40;;;;;;;10.32;1.47;;;;;;;28.71;36.54;100317.12;1707721;84;21217;-80
2022/07/29 11:15:07;;;;;;;3.67;1.32;;;;;;;28.69;36.49;100321.63;1707629;84;21750;-81
2022/07/29 11:18:14;;;;;;;5.85;1.60;;;;;;;28.69;36.49;100321.63;1706399;84;21798;-80
2022/07/29 11:21:43;;;;;;;6.65;1.85;;;;;;;28.66;36.51;100310.98;1690810;84;21756;-81
2022/07/29 11:24:50;;;;;;;;;;;;;;;28.67;36.14;100313.22;1666608;84;21187;-80
2022/07/29 11:27:57;;;;;;;4.62;1.55;;;;;;;28.60;36.34;100321.99;1664346;86;20206;-80
2022/07/29 11:31:04;;;;;;;3.75;1.50;;;;;;;28.60;35.88;100321.99;1663634;86;21243;-79
2022/07/29 11:34:40;;;;;;;6.35;1.80;;;;;;;28.63;35.58;100303.69;1661815;86;21188;-80
2022/07/29 11:37:53;;;;;;;7.87;1.32;;;;;;;28.64;35.98;100314.64;1657041;86;21212;-82
2022/07/29 11:41:36;;;;;;;4.83;1.40;;;;;;;28.67;35.64;100311.25;1659597;86;21216;-81
2022/07/29 11:45:09;;;;;;;4.67;1.55;;;;;;;28.67;35.64;100311.25;1635838;85;21220;-81
2022/07/29 11:48:19;;;;;;;7.90;1.55;;;;;;;28.69;35.75;100307.55;1603713;89;21193;-81
2022/07/29 11:51:27;;;;;;;9.80;1.55;;;;;;;28.77;34.72;100318.74;1631851;87;21248;-80
2022/07/29 11:54:39;;;;;;;4.87;1.75;;;;;;;28.80;35.01;100328.02;1643118;87;21232;-81
2022/07/29 11:57:55;;;;;;;7.22;1.45;;;;;;;28.76;34.77;100303.84;1637476;85;21722;-81
2022/07/29 12:01:02;;;;;;;3.02;1.35;;;;;;;28.74;35.09;100300.46;1605127;89;21253;-81
2022/07/29 12:04:12;;;;;;;7.90;1.30;;;;;;;28.78;34.38;100307.17;1638437;85;21183;-80
2022/07/29 12:07:18;;;;;;;8.68;1.40;;;;;;;28.82;33.73;100306.59;1655834;86;21223;-81
2022/07/29 12:10:24;;;;;;;6.72;1.10;;;;;;;28.80;33.87;100308.88;1679377;84;21224;-81
2022/07/29 12:13:26;;;;;;;2.05;1.25;;;;;;;28.80;33.27;100313.10;1690941;85;21300;-81
2022/07/29 12:16:36;;;;;;;;;;;;;;;28.75;33.10;100301.33;1692172;85;21263;-81
2022/07/29 12:19:50;;;;;;;3.22;1.25;;;;;;;28.70;32.75;100307.84;1689524;84;20676;-81
2022/07/29 12:22:58;;;;;;;4.20;1.20;;;;;;;28.69;32.86;100298.27;1689731;85;21199;-80
2022/07/29 12:26:04;;;;;;;5.58;1.35;;;;;;;28.71;32.53;100288.41;1690180;85;21521;-80
2022/07/29 12:29:11;;;;;;;2.87;1.25;;;;;;;28.68;32.26;100292.38;1674567;85;21294;-80
2022/07/29 12:32:19;;;;;;;1.95;1.10;;;;;;;28.68;31.87;100293.22;1690229;85;21200;-80
2022/07/29 12:35:26;;;;;;;4.12;1.57;;;;;;;28.69;32.72;100286.45;1689190;85;21204;-81
2022/07/29 12:38:32;;;;;;;6.35;1.20;;;;;;;28.73;32.43;100287.53;1690436;85;21813;-80
2022/07/29 12:41:38;;;;;;;6.12;1.30;;;;;;;28.72;32.64;100285.86;1690537;85;21256;-80
2022/07/29 12:44:55;;;;;;;6.00;1.42;;;;;;;28.73;32.77;100286.12;1690529;85;21791;-80
2022/07/29 12:48:01;;;;;;;3.60;1.40;;;;;;;28.66;33.26;100288.47;1690561;85;21164;-81
2022/07/29 12:51:08;;;;;;;12.80;1.50;;;;;;;28.67;33.23;100283.11;1690715;85;21793;-80
2022/07/29 12:54:20;;;;;;;1.82;1.10;;;;;;;28.66;33.52;100290.45;1691976;85;21240;-80
2022/07/29 12:57:25;;;;;;;3.10;1.27;;;;;;;28.70;33.04;100290.09;1690442;85;21192;-81
2022/07/29 13:00:32;;;;;;;6.28;1.55;;;;;;;28.73;33.22;100293.16;1691395;85;21797;-80
2022/07/29 13:04:01;;;;;;;8.23;1.70;;;;;;;28.81;32.21;100288.03;1691418;85;21843;-81
2022/07/29 13:07:11;;;;;;;3.33;1.10;;;;;;;28.78;32.77;100295.09;1692029;85;21184;-81
2022/07/29 13:10:28;;;;;;;4.12;1.30;;;;;;;28.76;33.02;100287.52;1689740;85;21801;-80
2022/07/29 13:13:35;;;;;;;4.92;1.37;;;;;;;28.70;32.51;100298.00;1690842;85;21172;-81
2022/07/29 13:16:41;;;;;;;8.75;1.47;;;;;;;28.65;32.54;100288.17;1675694;85;21235;-81
2022/07/29 13:20:02;;;;;;;15.43;1.77;;;;;;;28.60;32.88;100285.41;1690992;84;21188;-80
2022/07/29 13:23:02;;;;;;;8.63;1.30;;;;;;;28.57;33.24;100300.09;1690945;85;21606;-81
2022/07/29 13:25:54;;;;;;;4.58;1.20;;;;;;;28.55;32.70;100291.09;1690769;84;21207;-81
2022/07/29 13:28:40;;;;;;;2.80;1.37;;;;;;;28.50;32.67;100303.23;1692176;85;21663;-81
2022/07/29 13:31:32;;;;;;;4.40;1.50;;;;;;;28.46;32.36;100288.65;1690970;85;21231;-82
2022/07/29 13:34:21;;;;;;;9.60;1.67;;;;;;;28.41;32.81;100292.34;1692059;85;21181;-82
2022/07/29 13:37:13;;;;;;;8.95;1.50;;;;;;;28.42;33.26;100286.16;1690874;85;21219;-81
2022/07/29 13:40:18;;;;;;;4.77;1.80;;;;;;;28.41;33.53;100281.09;1691899;85;21180;-80
2022/07/29 13:43:23;;;;;;;2.55;1.22;;;;;;;28.41;33.76;100282.50;1692196;85;21523;-81
2022/07/29 13:46:30;;;;;;;4.72;1.75;;;;;;;28.41;32.88;100276.88;1691822;85;21247;-81
2022/07/29 13:49:37;;;;;;;6.62;1.47;;;;;;;28.39;33.47;100283.95;1690762;85;21216;-81
2022/07/29 13:52:43;;;;;;;8.20;1.50;;;;;;;28.35;33.98;100280.05;1690820;85;21232;-81
2022/07/29 13:55:51;;;;;;;6.67;1.70;;;;;;;28.35;33.82;100287.91;1690828;85;21224;-81
2022/07/29 13:58:56;;;;;;;8.90;1.55;;;;;;;28.30;33.99;100287.93;1692053;85;21721;-81
2022/07/29 14:02:04;;;;;;;5.05;1.40;;;;;;;28.25;34.37;100280.38;1692026;85;21785;-80
2022/07/29 14:05:13;;;;;;;5.28;1.47;;;;;;;28.22;34.11;100284.34;1691864;85;21239;-81
2022/07/29 14:08:19;;;;;;;5.25;1.70;;;;;;;28.18;33.73;100282.70;1692137;85;21156;-81
2022/07/29 14:11:25;;;;;;;4.75;1.60;;;;;;;28.14;33.78;100284.42;1685069;84;21789;-81
2022/07/29 14:14:32;;;;;;;4.72;1.27;;;;;;;28.10;34.01;100284.73;1667718;85;21245;-80
2022/07/29 14:17:39;;;;;;;3.80;1.25;;;;;;;28.05;33.86;100281.13;1667690;86;21229;-81
2022/07/29 14:20:44;;;;;;;2.17;1.17;;;;;;;27.98;33.99;100284.25;1668447;86;21257;-81
2022/07/29 14:23:51;;;;;;;4.08;1.57;;;;;;;27.95;34.40;100294.13;1667678;86;21770;-81
2022/07/29 14:26:57;;;;;;;3.85;1.45;;;;;;;27.87;34.04;100278.44;1667648;85;21228;-81
2022/07/29 14:30:05;;;;;;;6.92;1.50;;;;;;;27.81;34.28;100273.97;1668650;86;21762;-81
2022/07/29 14:33:11;;;;;;;3.12;1.12;;;;;;;27.79;34.26;100276.25;1669005;86;21222;-81
2022/07/29 14:36:17;;;;;;;4.40;1.20;;;;;;;27.76;34.24;100271.50;1667933;86;21216;-80
2022/07/29 14:39:23;;;;;;;6.95;1.35;;;;;;;27.75;34.19;100272.60;1668874;86;22151;-81
2022/07/29 14:42:31;;;;;;;8.20;1.35;;;;;;;27.73;34.18;100279.09;1667534;86;21781;-81